Thunder radar more information blitzortung!


Radar de pluja more information rain snow radar


Visita la nostra xarxa de llocs de meteo:

Template documentation
and downloads

And another site



No particular awareness of the weather is required.    There are no Weather-warnings

Pagina Historial Weather Underground text

Diari Resum Setembre 3, 2017 Unitats:  Mètric    Imperial   Tant
« Previous Dia
SegĂźent Dia »
Diari Setmana Mensual Anual Personalitzada
  Maxima: Minima: Media:
Temperatura: -17.8 °C -9.2 °C -5.2 °C
Punt de rosada: -17.8 °C -12 °C -10.3 °C
Humitat: Humidity % 36 % 57 %
Wind Speed: 0 km/h 0 km/h 7.6 km/h
RĂ fegues de vent: 0 km/h - -
Vent:- - SSE
Pression baro: 0 hPa 34222.3 hPa -
Precipitacions: 0 mm    
Historical Graphs
 
 
Dades de taula per Setembre 3, 2017
Temps Temperatura Punt de rosada Pression baro Vent Wind Speed RĂ fegues de vent Humitat Rainfall Rate (Hourly)
-17.8 °C -17.8 °C 0 hPa Calm     Humidity % 0 mm
00:01 -6.8 °C -11.7 °C 34496.6 hPa NNW 11.9 km/h 11.9 km/h 57 % 0 mm
00:05 -8.8 °C -11.9 °C 34428.8 hPa Calm   5.1 km/h 69 % 0 mm
00:06 -6.8 °C -11.7 °C 34496.6 hPa NE 9 km/h 9 km/h 57 % 0 mm
00:11 -6.8 °C -11.7 °C 34496.6 hPa NNE 11.1 km/h 11.1 km/h 57 % 0 mm
00:15 -8.8 °C -11.8 °C 34428.8 hPa Calm     70 % 0 mm
00:25 -8.8 °C -11.8 °C 34428.8 hPa Calm     70 % 0 mm
00:35 -8.8 °C -11.8 °C 34428.8 hPa Calm     71 % 0 mm
00:45 -8.8 °C -11.8 °C 34428.8 hPa Calm     71 % 0 mm
00:55 -8.8 °C -11.8 °C 34428.8 hPa Calm     71 % 0 mm
01:05 -8.8 °C -11.6 °C 34428.8 hPa Calm     72 % 0 mm
01:15 -8.8 °C -11.7 °C 34428.8 hPa Calm   2.6 km/h 71 % 0 mm
01:25 -8.8 °C -11.6 °C 34395 hPa Calm   2.6 km/h 72 % 0 mm
01:35 -8.8 °C -11.8 °C 34395 hPa Calm   2.6 km/h 71 % 0 mm
01:45 -8.8 °C -11.6 °C 34395 hPa Calm   2.6 km/h 72 % 0 mm
01:55 -8.8 °C -11.6 °C 34395 hPa Calm   5.1 km/h 72 % 0 mm
02:05 -8.9 °C -11.7 °C 34395 hPa Calm   2.6 km/h 72 % 0 mm
02:15 -9.1 °C -12 °C 34395 hPa ENE 2.6 km/h 5.1 km/h 71 % 0 mm
02:25 -9.1 °C -11.8 °C 34395 hPa Calm   2.6 km/h 73 % 0 mm
02:35 -9.2 °C -11.8 °C 34395 hPa Calm     73 % 0 mm
02:45 -9.1 °C -11.8 °C 34395 hPa WSW 2.6 km/h 2.6 km/h 73 % 0 mm
02:55 -9.1 °C -11.7 °C 34395 hPa Calm     74 % 0 mm
03:05 -8.9 °C -11.6 °C 34395 hPa WSW 2.6 km/h 2.6 km/h 73 % 0 mm
03:15 -8.9 °C -11.6 °C 34395 hPa Calm     73 % 0 mm
03:25 -8.8 °C -11.6 °C 34395 hPa SW 2.6 km/h 2.6 km/h 72 % 0 mm
03:35 -8.7 °C -11.6 °C 34395 hPa SW 5.1 km/h 5.1 km/h 72 % 0 mm
03:45 -8.4 °C -11.2 °C 34395 hPa Calm   2.6 km/h 73 % 0 mm
03:55 -8.4 °C -11.4 °C 34395 hPa SSW 2.6 km/h 5.1 km/h 71 % 0 mm
04:05 -8.2 °C -11.2 °C 34395 hPa SSW 2.6 km/h 2.6 km/h 70 % 0 mm
04:15 -7.9 °C -11.2 °C 34395 hPa SW 2.6 km/h 2.6 km/h 69 % 0 mm
04:25 -7.7 °C -11 °C 34395 hPa Calm   5.1 km/h 68 % 0 mm
04:35 -7.4 °C -10.8 °C 34395 hPa East 2.6 km/h 2.6 km/h 68 % 0 mm
04:45 -7.4 °C -10.9 °C 34395 hPa NNE 2.6 km/h 10.3 km/h 67 % 0 mm
04:55 -7.3 °C -10.8 °C 34395 hPa West 5.1 km/h 5.1 km/h 67 % 0 mm
05:05 -6.9 °C -10.6 °C 34395 hPa SW 2.6 km/h 7.7 km/h 66 % 0 mm
05:15 -6.9 °C -10.7 °C 34395 hPa SW 2.6 km/h 5.1 km/h 65 % 0 mm
05:25 -6.7 °C -10.7 °C 34395 hPa SW 5.1 km/h 5.1 km/h 63 % 0 mm
05:35 -6.3 °C -10.4 °C 34395 hPa NNE 2.6 km/h 5.1 km/h 63 % 0 mm
05:45 -6.3 °C -10.5 °C 34395 hPa NW 5.1 km/h 7.7 km/h 62 % 0 mm
05:55 -6.2 °C -10.4 °C 34395 hPa WSW 2.6 km/h 7.7 km/h 62 % 0 mm
06:05 -5.8 °C -10.2 °C 34395 hPa SSW 5.1 km/h 7.7 km/h 61 % 0 mm
06:20 -5.6 °C -9.9 °C 34395 hPa SSE 5.1 km/h 5.1 km/h 61 % 0 mm
11:22 -5.6 °C -10.1 °C 34395 hPa ESE 3.1 km/h 4.2 km/h 60 % 0 mm
11:23 -5.6 °C -10.1 °C 34395 hPa SE 8 km/h 8 km/h 60 % 0 mm
11:24 -5.6 °C -10.1 °C 34395 hPa SE 9 km/h 9 km/h 60 % 0 mm
11:29 -5.4 °C -9.9 °C 34395 hPa WSW 6.8 km/h 6.8 km/h 60 % 0 mm
11:34 -5.3 °C -9.9 °C 34395 hPa SSE 12.2 km/h 12.2 km/h 59 % 0 mm
11:39 -5.2 °C -10 °C 34395 hPa East 8 km/h 8 km/h 58 % 0 mm
11:44 -5.2 °C -10.1 °C 34395 hPa ENE 9 km/h 9 km/h 58 % 0 mm
11:49 -5.2 °C -10.2 °C 34395 hPa ENE 6.8 km/h 6.8 km/h 57 % 0 mm
11:54 -5.2 °C -10.3 °C 34395 hPa ESE 9 km/h 9 km/h 56 % 0 mm
11:59 -5.1 °C -10.2 °C 34395 hPa WSW 9.3 km/h 9.3 km/h 56 % 0 mm
12:04 -4.7 °C -10.5 °C 34395 hPa SSE 9 km/h 9 km/h 52 % 0 mm
12:09 -4.7 °C -10.5 °C 34361.1 hPa North 6 km/h 6 km/h 52 % 0 mm
12:14 -4.6 °C -10.6 °C 34361.1 hPa ENE 3.7 km/h 3.7 km/h 51 % 0 mm
12:19 -4.4 °C -10.6 °C 34361.1 hPa Calm     50 % 0 mm
12:24 -4.4 °C -10.7 °C 34395 hPa SSW 9 km/h 9 km/h 49 % 0 mm
12:29 -4.4 °C -10.7 °C 34395 hPa SW 6 km/h 6 km/h 49 % 0 mm
12:34 -4.4 °C -10.9 °C 34395 hPa SW 11.9 km/h 11.9 km/h 48 % 0 mm
12:39 -4.4 °C -11.1 °C 34361.1 hPa SSE 9 km/h 9 km/h 47 % 0 mm
12:44 -4.6 °C -11.2 °C 34361.1 hPa South 11.9 km/h 11.9 km/h 47 % 0 mm
12:49 -4.6 °C -11.1 °C 34361.1 hPa SW 11.9 km/h 11.9 km/h 48 % 0 mm
12:54 -4.4 °C -11.1 °C 34361.1 hPa South 6.3 km/h 6.3 km/h 47 % 0 mm
12:59 -4.5 °C -11.2 °C 34361.1 hPa SE 11.9 km/h 11.9 km/h 47 % 0 mm
13:04 -4.6 °C -11.4 °C 34361.1 hPa South 11.9 km/h 11.9 km/h 46 % 0 mm
13:09 -4.6 °C -11.4 °C 34327.3 hPa SE 15 km/h 15 km/h 46 % 0 mm
13:14 -4.4 °C -11.3 °C 34327.3 hPa WSW 9 km/h 9 km/h 46 % 0 mm
13:19 -4.4 °C -11.4 °C 34327.3 hPa SSW 9 km/h 9 km/h 45 % 0 mm
13:24 -4.2 °C -11.2 °C 34327.3 hPa WSW 11.9 km/h 11.9 km/h 45 % 0 mm
13:29 -4.1 °C -11.5 °C 34327.3 hPa SW 3.1 km/h 3.1 km/h 43 % 0 mm
13:34 -3.9 °C -11.3 °C 34327.3 hPa SSW 9 km/h 9 km/h 43 % 0 mm
13:39 -3.8 °C -11.3 °C 34327.3 hPa WSW 9.8 km/h 9.8 km/h 43 % 0 mm
13:44 -3.8 °C -11.3 °C 34327.3 hPa South 20.9 km/h 20.9 km/h 43 % 0 mm
13:49 -3.8 °C -11.4 °C 34327.3 hPa SW 11.9 km/h 11.9 km/h 42 % 0 mm
13:54 -3.8 °C -11.5 °C 34327.3 hPa WSW 10.3 km/h 10.3 km/h 42 % 0 mm
13:59 -3.8 °C -11.7 °C 34327.3 hPa WSW 11.9 km/h 11.9 km/h 41 % 0 mm
14:04 -3.6 °C -11.5 °C 34327.3 hPa SSW 6 km/h 6 km/h 41 % 0 mm
14:09 -3.6 °C -11.4 °C 34327.3 hPa WSW 9 km/h 9 km/h 41 % 0 mm
14:14 -3.4 °C -11.3 °C 34327.3 hPa SW 6 km/h 6 km/h 41 % 0 mm
14:19 -3.2 °C -11.2 °C 34327.3 hPa SSW 9 km/h 9 km/h 41 % 0 mm
14:24 -3 °C -10.9 °C 34327.3 hPa SSW 16.1 km/h 16.1 km/h 41 % 0 mm
14:29 -3.3 °C -11.3 °C 34327.3 hPa West 6 km/h 6 km/h 41 % 0 mm
14:34 -3.3 °C -11.4 °C 34327.3 hPa West 14.5 km/h 14.5 km/h 40 % 0 mm
14:39 -3.2 °C -11.6 °C 34293.4 hPa WSW 6 km/h 6 km/h 39 % 0 mm
14:44 -3.2 °C -11.6 °C 34293.4 hPa SW 6.3 km/h 6.3 km/h 39 % 0 mm
14:49 -3.1 °C -11.2 °C 34293.4 hPa SSW 9 km/h 9 km/h 40 % 0 mm
14:54 -3 °C -11.2 °C 34293.4 hPa SW 9 km/h 9 km/h 40 % 0 mm
14:59 -2.9 °C -11.3 °C 34293.4 hPa WSW 6 km/h 6 km/h 39 % 0 mm
15:04 -2.9 °C -11.5 °C 34293.4 hPa SSE 6 km/h 6 km/h 38 % 0 mm
15:09 -3.1 °C -11.7 °C 34293.4 hPa East 6.8 km/h 6.8 km/h 38 % 0 mm
15:14 -2.8 °C -11.4 °C 34293.4 hPa WSW 9 km/h 9 km/h 38 % 0 mm
15:19 -2.6 °C -11.4 °C 34293.4 hPa WSW 6 km/h 6 km/h 37 % 0 mm
15:24 -2.6 °C -11.7 °C 34256.2 hPa SSE 11.9 km/h 11.9 km/h 36 % 0 mm
15:29 -2.6 °C -11.7 °C 34256.2 hPa ESE 9.8 km/h 9.8 km/h 36 % 0 mm
15:34 -2.4 °C -11.3 °C 34256.2 hPa SSE 15 km/h 15 km/h 37 % 0 mm
15:39 -2.1 °C -11 °C 34256.2 hPa West 9 km/h 9 km/h 37 % 0 mm
15:44 -2.1 °C -11 °C 34256.2 hPa SW 7.6 km/h 7.6 km/h 37 % 0 mm
15:49 -2 °C -10.9 °C 34256.2 hPa WSW 12.2 km/h 12.2 km/h 37 % 0 mm
15:54 -2.1 °C -11 °C 34256.2 hPa SSW 12.2 km/h 12.2 km/h 37 % 0 mm
15:59 -2.3 °C -11.2 °C 34256.2 hPa WSW 10.3 km/h 10.3 km/h 37 % 0 mm
16:04 -2.3 °C -11.2 °C 34256.2 hPa SW 12.7 km/h 12.7 km/h 37 % 0 mm
16:09 -2.2 °C -11.3 °C 34256.2 hPa South 9 km/h 9 km/h 36 % 0 mm
16:14 -2.2 °C -11.3 °C 34256.2 hPa WSW 11.9 km/h 11.9 km/h 36 % 0 mm
16:19 -2.3 °C -11.2 °C 34256.2 hPa WSW 9.8 km/h 11.1 km/h 37 % 0 mm
16:24 -2.3 °C -10.9 °C 34256.2 hPa SSW 11.9 km/h 11.9 km/h 38 % 0 mm
16:25 -2.2 °C -10.9 °C 34256.2 hPa South 11.9 km/h 11.9 km/h 38 % 0 mm
16:30 -2.5 °C -11.2 °C 34256.2 hPa SW 10.3 km/h 10.3 km/h 38 % 0 mm
16:35 -2.6 °C -11.1 °C 34256.2 hPa SSW 17.9 km/h 17.9 km/h 39 % 0 mm
16:40 -2.4 °C -10.9 °C 34256.2 hPa South 15 km/h 15 km/h 39 % 0 mm
16:45 -2.5 °C -10.9 °C 34256.2 hPa SW 15 km/h 15 km/h 39 % 0 mm
16:50 -2.3 °C -10.7 °C 34256.2 hPa WSW 7.7 km/h 15.6 km/h 39 % 0 mm
16:55 -2.1 °C -10.8 °C 34256.2 hPa WSW 5.1 km/h 10.3 km/h 38 % 0 mm
17:00 -1.9 °C -10.6 °C 34256.2 hPa WSW 15 km/h 15 km/h 38 % 0 mm
17:05 -1.9 °C -10.9 °C 34256.2 hPa SW 15 km/h 15 km/h 37 % 0 mm
17:10 -1.9 °C -10.8 °C 34256.2 hPa SSW 7.7 km/h 18.2 km/h 37 % 0 mm
17:15 -2.3 °C -10.9 °C 34256.2 hPa SSE 6.3 km/h 6.3 km/h 38 % 0 mm
17:20 -2.4 °C -10.7 °C 34256.2 hPa South 11.9 km/h 11.9 km/h 40 % 0 mm
17:25 -2.3 °C -10.7 °C 34222.3 hPa East 11.9 km/h 11.9 km/h 39 % 0 mm
17:30 -2.2 °C -10.7 °C 34222.3 hPa South 9.8 km/h 9.8 km/h 39 % 0 mm
17:35 -2.3 °C -10.8 °C 34222.3 hPa SSE 9 km/h 9 km/h 39 % 0 mm
17:40 -2.2 °C -10.7 °C 34222.3 hPa West 9 km/h 9 km/h 39 % 0 mm
17:45 -2.1 °C -10.6 °C 34222.3 hPa SW 6 km/h 6 km/h 39 % 0 mm
17:50 -1.9 °C -10.4 °C 34222.3 hPa South 7.7 km/h 15.6 km/h 39 % 0 mm
17:55 -2.1 °C -10.6 °C 34222.3 hPa SW 12.9 km/h 23.3 km/h 39 % 0 mm
18:00 -1.9 °C -10.2 °C 34222.3 hPa SW 11.9 km/h 11.9 km/h 40 % 0 mm
18:05 -1.9 °C -10.4 °C 34222.3 hPa West 9 km/h 9.8 km/h 39 % 0 mm
18:10 -2 °C -10.3 °C 34222.3 hPa SW 7.7 km/h 18.2 km/h 40 % 0 mm
18:15 -1.9 °C -10.2 °C 34222.3 hPa SW 5.1 km/h 15.6 km/h 40 % 0 mm
18:20 -2.3 °C -10.4 °C 34222.3 hPa SSW 17.9 km/h 17.9 km/h 41 % 0 mm
18:25 -2.2 °C -10.3 °C 34256.2 hPa SSW 5.1 km/h 12.9 km/h 41 % 0 mm
18:30 -2.3 °C -10.1 °C 34256.2 hPa SSW 5.1 km/h 12.9 km/h 42 % 0 mm
18:35 -2.5 °C -10.3 °C 34256.2 hPa WSW 11.9 km/h 11.9 km/h 42 % 0 mm
18:40 -2.7 °C -10.3 °C 34256.2 hPa SW 12.9 km/h 18.2 km/h 43 % 0 mm
18:45 -2.8 °C -10.2 °C 34256.2 hPa SSW 5.1 km/h 12.9 km/h 44 % 0 mm
18:50 -2.7 °C -10.1 °C 34256.2 hPa SSW 5.1 km/h 15.6 km/h 44 % 0 mm
18:55 -2.7 °C -9.9 °C 34256.2 hPa SSW 15 km/h 15 km/h 45 % 0 mm
19:00 -2.8 °C -9.9 °C 34256.2 hPa West 8 km/h 8 km/h 45 % 0 mm
19:05 -2.9 °C -9.9 °C 34256.2 hPa SW 7.7 km/h 15.6 km/h 46 % 0 mm
19:10 -3.1 °C -9.8 °C 34256.2 hPa SW 5.1 km/h 12.9 km/h 47 % 0 mm
19:15 -3.2 °C -9.9 °C 34256.2 hPa SW 2.6 km/h 12.9 km/h 47 % 0 mm
19:20 -3.3 °C -9.9 °C 34256.2 hPa WSW 9 km/h 9 km/h 48 % 0 mm
19:25 -3.3 °C -9.9 °C 34256.2 hPa West 2.6 km/h 7.7 km/h 48 % 0 mm
19:30 -3.6 °C -10 °C 34256.2 hPa NNW 5.1 km/h 12.9 km/h 49 % 0 mm
19:35 -3.9 °C -9.9 °C 34256.2 hPa East 5.1 km/h 15.6 km/h 51 % 0 mm
19:40 -4.1 °C -9.6 °C 34256.2 hPa ESE 20.9 km/h 20.9 km/h 54 % 0 mm
19:45 -4.3 °C -9.6 °C 34256.2 hPa East 12.9 km/h 20.8 km/h 55 % 0 mm
19:50 -4.5 °C -9.4 °C 34256.2 hPa East 20.9 km/h 20.9 km/h 58 % 0 mm
19:55 -4.6 °C -9.2 °C 34256.2 hPa ESE 25.4 km/h 25.4 km/h 60 % 0 mm
20:00 -4.7 °C -9.2 °C 34256.2 hPa ESE 12.9 km/h 25.9 km/h 60 % 0 mm
20:05 -4.7 °C -9.3 °C 34256.2 hPa East 7.7 km/h 15.6 km/h 60 % 0 mm
20:10 -4.8 °C -9.2 °C 34256.2 hPa East 12.9 km/h 23.3 km/h 61 % 0 mm
20:15 -4.9 °C -8.9 °C 34256.2 hPa East 12.9 km/h 20.8 km/h 64 % 0 mm
20:20 -5 °C -8.8 °C 34256.2 hPa East 7.7 km/h 20.8 km/h 65 % 0 mm
20:25 -5.1 °C -8.8 °C 34256.2 hPa East 12.9 km/h 15.6 km/h 66 % 0 mm
20:30 -5.1 °C -8.8 °C 34256.2 hPa East 12.9 km/h 20.8 km/h 66 % 0 mm
20:35 -5.2 °C -8.8 °C 34256.2 hPa East 12.9 km/h 18.2 km/h 67 % 0 mm
20:40 -5.3 °C -8.7 °C 34256.2 hPa East 20.9 km/h 20.9 km/h 68 % 0 mm
20:45 -5.3 °C -8.7 °C 34256.2 hPa East 5.1 km/h 15.6 km/h 68 % 0 mm
20:50 -5.3 °C -8.7 °C 34256.2 hPa ENE 7.7 km/h 12.9 km/h 68 % 0 mm
20:55 -5.3 °C -8.8 °C 34256.2 hPa ENE 5.1 km/h 15.6 km/h 68 % 0 mm
21:00 -5.4 °C -8.9 °C 34256.2 hPa ENE 5.1 km/h 12.9 km/h 67 % 0 mm
21:05 -5.5 °C -9.1 °C 34256.2 hPa ENE 12.9 km/h 18.2 km/h 67 % 0 mm
21:06 -5.6 °C -9 °C 34256.2 hPa East 15 km/h 15 km/h 68 % 0 mm
21:10 -6.8 °C -9 °C 34256.2 hPa Calm     78 % 0 mm
21:11 -5.6 °C -9 °C 34256.2 hPa East 15 km/h 15 km/h 68 % 0 mm
21:16 -5.6 °C -8.9 °C 34256.2 hPa ENE 11.9 km/h 11.9 km/h 69 % 0 mm
21:20 -6.9 °C -9 °C 34256.2 hPa East 2.6 km/h 5.1 km/h 79 % 0 mm
21:21 -5.7 °C -8.8 °C 34256.2 hPa ENE 9 km/h 9.3 km/h 70 % 0 mm
21:26 -5.7 °C -9 °C 34256.2 hPa North 11.9 km/h 11.9 km/h 69 % 0 mm
21:30 -7 °C -9 °C 34256.2 hPa ENE 2.6 km/h 5.1 km/h 80 % 0 mm
21:31 -5.7 °C -8.9 °C 34256.2 hPa NE 11.9 km/h 11.9 km/h 70 % 0 mm
21:36 -5.8 °C -8.9 °C 34256.2 hPa ENE 9 km/h 9.3 km/h 70 % 0 mm
21:40 -7.1 °C -8.9 °C 34222.3 hPa NE 2.6 km/h 5.1 km/h 81 % 0 mm
21:41 -5.8 °C -9 °C 34293.4 hPa ESE 6 km/h 6 km/h 70 % 0 mm
21:46 -5.8 °C -9 °C 34293.4 hPa ENE 12.2 km/h 12.2 km/h 70 % 0 mm
21:50 -7.1 °C -8.8 °C 34222.3 hPa Calm   2.6 km/h 82 % 0 mm
21:51 -5.9 °C -9.1 °C 34293.4 hPa NE 9 km/h 9 km/h 70 % 0 mm
21:56 -5.9 °C -9.1 °C 34327.3 hPa ENE 11.9 km/h 11.9 km/h 70 % 0 mm
22:00 -7.1 °C -8.8 °C 34256.2 hPa NNE 2.6 km/h 2.6 km/h 82 % 0 mm
22:01 -6 °C -9.1 °C 34327.3 hPa East 10.3 km/h 10.3 km/h 71 % 0 mm
22:06 -6.1 °C -9.1 °C 34327.3 hPa ESE 11.9 km/h 11.9 km/h 71 % 0 mm
22:10 -7.1 °C -8.7 °C 34256.2 hPa Calm     83 % 0 mm
22:11 -6.1 °C -9.1 °C 34293.4 hPa NNE 9 km/h 9 km/h 71 % 0 mm
22:16 -6.1 °C -9.1 °C 34293.4 hPa East 9 km/h 9 km/h 71 % 0 mm
22:20 -7.1 °C -8.7 °C 34256.2 hPa West 2.6 km/h 5.1 km/h 83 % 0 mm
22:21 -6.1 °C -9 °C 34293.4 hPa ENE 9 km/h 9 km/h 72 % 0 mm
22:26 -6.1 °C -9.1 °C 34293.4 hPa NNE 9.3 km/h 9.3 km/h 71 % 0 mm
22:30 -7.1 °C -8.7 °C 34256.2 hPa Calm   2.6 km/h 84 % 0 mm
22:31 -6.2 °C -9.1 °C 34293.4 hPa North 9 km/h 9 km/h 72 % 0 mm
22:36 -6.2 °C -9.1 °C 34293.4 hPa ESE 10.3 km/h 10.3 km/h 72 % 0 mm
22:40 -7.1 °C -8.5 °C 34256.2 hPa NNE 2.6 km/h 5.1 km/h 85 % 0 mm
22:41 -6.2 °C -9 °C 34293.4 hPa East 6 km/h 6 km/h 73 % 0 mm
22:46 -6.2 °C -9.1 °C 34293.4 hPa ENE 6.8 km/h 6.8 km/h 72 % 0 mm
22:50 -7.1 °C -8.6 °C 34256.2 hPa Calm   5.1 km/h 85 % 0 mm
22:51 -6.3 °C -9.2 °C 34293.4 hPa East 11.9 km/h 11.9 km/h 72 % 0 mm
22:56 -6.3 °C -9.1 °C 34293.4 hPa East 6.3 km/h 6.3 km/h 73 % 0 mm
23:00 -7.2 °C -8.7 °C 34222.3 hPa Calm   5.1 km/h 85 % 0 mm
23:01 -6.3 °C -9.1 °C 34293.4 hPa ENE 6 km/h 6 km/h 73 % 0 mm
23:06 -6.4 °C -9.2 °C 34293.4 hPa NNE 9.3 km/h 9.3 km/h 73 % 0 mm
23:10 -7.2 °C -8.6 °C 34256.2 hPa SSW 2.6 km/h 5.1 km/h 86 % 0 mm
23:11 -6.4 °C -9.2 °C 34293.4 hPa NNE 9 km/h 9 km/h 73 % 0 mm
23:16 -6.4 °C -9.2 °C 34293.4 hPa NE 9 km/h 9 km/h 73 % 0 mm
23:20 -7.2 °C -8.7 °C 34256.2 hPa North 5.1 km/h 5.1 km/h 85 % 0 mm
23:21 -6.4 °C -9.2 °C 34293.4 hPa East 6 km/h 6.3 km/h 73 % 0 mm
23:26 -6.4 °C -9.2 °C 34327.3 hPa NE 6 km/h 6 km/h 73 % 0 mm
23:30 -7.3 °C -8.7 °C 34293.4 hPa WNW 5.1 km/h 5.1 km/h 85 % 0 mm
23:31 -6.4 °C -9.2 °C 34327.3 hPa NNE 9 km/h 9 km/h 73 % 0 mm
23:36 -6.4 °C -9.1 °C 34327.3 hPa NE 9 km/h 9 km/h 74 % 0 mm
23:40 -7.3 °C -8.5 °C 34256.2 hPa Calm   2.6 km/h 87 % 0 mm
23:41 -6.4 °C -9.1 °C 34293.4 hPa NE 6 km/h 6 km/h 74 % 0 mm
23:46 -6.4 °C -9.1 °C 34293.4 hPa ESE 6 km/h 6 km/h 74 % 0 mm
23:50 -7.3 °C -8.5 °C 34256.2 hPa NW 2.6 km/h 5.1 km/h 87 % 0 mm
23:51 -6.5 °C -9.2 °C 34293.4 hPa East 6 km/h 6 km/h 74 % 0 mm
23:56 -6.5 °C -9.2 °C 34293.4 hPa South 3.1 km/h   74 % 0 mm
Meteo Sesrovires
Elogis d' Weather Underground - 3.5 mb

Guio original per  Jim McMurry - jmcmurry@mwt.net Adaptat per a la plantilla per  Wim van der Kuil - Leuven-Template.eu

Trobareu la nostra informacio del temps tambe a:

Weather Underground

AWEKAS